createdAt,value
2023-03-08T19:32:36.885Z,3.50
2023-03-08T19:35:05.355Z,6.75
2023-03-08T19:37:33.227Z,6.45
2023-03-08T19:40:01.614Z,7.00
2023-03-08T19:42:29.734Z,8.23
2023-03-08T19:44:57.652Z,7.97
2023-03-08T19:47:25.559Z,7.38
2023-03-08T19:49:54.788Z,7.20
2023-03-08T19:52:22.779Z,8.93
2023-03-08T19:54:50.622Z,10.25
2023-03-08T19:57:18.492Z,9.88
2023-03-08T19:59:46.377Z,10.93
2023-03-08T20:02:14.722Z,12.18
2023-03-08T20:04:42.636Z,11.77
2023-03-08T20:07:11.918Z,13.10
2023-03-08T20:09:41.396Z,13.32
2023-03-08T20:12:09.710Z,14.15
2023-03-08T20:14:37.641Z,15.30
2023-03-08T20:17:05.943Z,16.27
2023-03-08T20:19:34.177Z,17.30
2023-03-08T20:22:02.168Z,18.15
2023-03-08T20:24:31.430Z,22.30
2023-03-08T20:26:59.716Z,23.35
2023-03-08T20:29:27.656Z,26.42
2023-03-08T20:31:58.214Z,27.50
2023-03-08T20:34:27.033Z,26.83
2023-03-08T20:36:54.921Z,29.35
2023-03-08T20:39:23.569Z,29.60
2023-03-08T20:41:53.731Z,29.65
2023-03-08T20:44:21.662Z,33.30
2023-03-08T20:46:49.897Z,30.48
2023-03-08T20:49:17.758Z,31.10
2023-03-08T20:51:45.764Z,33.00
2023-03-08T20:54:13.626Z,30.73
2023-03-08T20:56:41.477Z,24.58
2023-03-08T20:59:10.922Z,28.65
2023-03-08T21:01:39.606Z,31.98
2023-03-08T21:04:07.779Z,30.25
2023-03-08T21:06:36.189Z,24.15
2023-03-08T21:09:04.742Z,29.35
2023-03-08T21:11:34.024Z,22.67
2023-03-08T21:14:01.934Z,20.65
2023-03-08T21:16:31.678Z,17.92
2023-03-08T21:19:02.309Z,20.50
2023-03-08T21:21:34.052Z,16.17
2023-03-08T21:24:04.531Z,18.73
2023-03-08T21:26:33.934Z,16.98
2023-03-08T21:29:03.260Z,17.15
2023-03-08T21:31:34.155Z,16.17
2023-03-08T21:34:02.869Z,16.17
2023-03-08T21:36:30.827Z,16.25
2023-03-08T21:38:59.586Z,16.60
2023-03-08T21:41:29.746Z,17.80
2023-03-08T21:43:58.294Z,16.80
2023-03-08T21:46:26.675Z,17.15
2023-03-08T21:48:56.532Z,16.40
2023-03-08T21:51:24.851Z,16.80
2023-03-08T21:53:52.726Z,16.50
2023-03-08T21:56:20.817Z,19.45
2023-03-08T21:58:48.726Z,19.83
2023-03-08T22:01:21.204Z,21.77
2023-03-08T22:03:49.223Z,21.73
2023-03-08T22:06:18.785Z,19.42
2023-03-08T22:08:46.653Z,19.50
2023-03-08T22:11:14.942Z,21.70
2023-03-08T22:13:42.875Z,24.15
2023-03-08T22:16:11.079Z,19.60
2023-03-08T22:18:38.942Z,18.40
2023-03-08T22:21:07.039Z,19.95
2023-03-08T22:23:36.245Z,20.45
2023-03-08T22:26:07.826Z,19.20
2023-03-08T22:28:36.058Z,15.38
2023-03-08T22:31:10.357Z,16.35
2023-03-08T22:33:38.536Z,13.98
2023-03-08T22:36:07.957Z,15.23
2023-03-08T22:38:37.905Z,15.57
2023-03-08T22:41:10.656Z,15.65
2023-03-08T22:43:38.590Z,13.73
2023-03-08T22:46:08.608Z,15.18
2023-03-08T22:48:36.490Z,14.73
2023-03-08T22:51:10.765Z,15.60
2023-03-08T22:53:41.314Z,16.70
2023-03-08T22:56:17.541Z,17.73
2023-03-08T22:58:45.515Z,17.35
2023-03-08T23:01:14.946Z,18.48
2023-03-08T23:03:43.086Z,18.48
2023-03-08T23:06:11.046Z,20.52
2023-03-08T23:08:40.475Z,20.15
2023-03-08T23:11:08.390Z,20.90
2023-03-08T23:13:36.474Z,21.40
2023-03-08T23:16:07.299Z,23.05
2023-03-08T23:18:35.408Z,26.25
2023-03-08T23:21:04.717Z,25.35
2023-03-08T23:23:33.090Z,24.08
2023-03-08T23:26:04.525Z,24.48
2023-03-08T23:28:35.251Z,25.30
2023-03-08T23:31:03.138Z,26.77
2023-03-08T23:33:31.027Z,27.25
2023-03-08T23:35:58.910Z,26.88
2023-03-08T23:38:26.762Z,26.35
2023-03-08T23:40:54.645Z,25.08
2023-03-08T23:43:23.859Z,26.40
2023-03-08T23:45:51.741Z,25.90
2023-03-08T23:48:19.646Z,25.77
2023-03-08T23:50:47.475Z,24.15
2023-03-08T23:53:15.350Z,24.98
2023-03-08T23:55:43.770Z,24.70
2023-03-08T23:58:11.637Z,24.75
